createdAt,value
2023-01-21T00:00:52.567Z,24.87
2023-01-21T00:03:18.931Z,25.93
2023-01-21T00:05:45.299Z,28.03
2023-01-21T00:08:11.691Z,25.87
2023-01-21T00:10:38.075Z,27.17
2023-01-21T00:13:04.414Z,27.30
2023-01-21T00:15:30.862Z,26.60
2023-01-21T00:17:57.220Z,25.07
2023-01-21T00:20:23.716Z,25.60
2023-01-21T00:22:53.714Z,26.13
2023-01-21T00:25:20.926Z,25.17
2023-01-21T00:27:47.440Z,26.30
2023-01-21T00:30:14.174Z,25.20
2023-01-21T00:32:40.652Z,26.17
2023-01-21T00:35:07.628Z,26.93
2023-01-21T00:37:34.037Z,26.63
2023-01-21T00:40:00.389Z,27.40
2023-01-21T00:42:27.890Z,25.33
2023-01-21T00:44:57.232Z,26.60
2023-01-21T00:47:24.493Z,26.80
2023-01-21T00:49:51.130Z,27.03
2023-01-21T00:52:17.486Z,27.63
2023-01-21T00:54:44.322Z,27.13
2023-01-21T00:57:10.795Z,26.90
2023-01-21T00:59:37.406Z,28.20
2023-01-21T01:02:03.755Z,28.67
2023-01-21T01:04:30.081Z,26.03
2023-01-21T01:06:56.435Z,26.90
2023-01-21T01:09:22.768Z,29.83
2023-01-21T01:11:49.108Z,27.27
2023-01-21T01:14:15.437Z,26.67
2023-01-21T01:16:41.796Z,28.67
2023-01-21T01:19:09.215Z,26.93
2023-01-21T01:21:35.539Z,28.03
2023-01-21T01:24:03.090Z,26.90
2023-01-21T01:26:29.680Z,30.07
2023-01-21T01:28:56.047Z,29.60
2023-01-21T01:31:22.646Z,28.43
2023-01-21T01:33:49.187Z,28.07
2023-01-21T01:36:18.063Z,26.77
2023-01-21T01:38:44.630Z,27.87
2023-01-21T01:41:21.004Z,27.40
2023-01-21T01:43:59.549Z,26.67
2023-01-21T01:46:31.432Z,27.63
2023-01-21T01:49:03.635Z,27.77
2023-01-21T01:51:38.254Z,27.50
2023-01-21T01:54:05.710Z,27.33
2023-01-21T01:56:32.151Z,28.33
2023-01-21T01:58:58.745Z,28.87
2023-01-21T02:01:25.322Z,28.40
2023-01-21T02:03:59.302Z,28.33
2023-01-21T02:06:26.800Z,27.63
2023-01-21T02:08:54.491Z,25.93
2023-01-21T02:11:21.642Z,27.30
2023-01-21T02:13:53.362Z,27.77
2023-01-21T02:16:39.014Z,26.47
2023-01-21T02:19:41.470Z,27.37
2023-01-21T02:22:13.758Z,26.30
2023-01-21T02:25:11.410Z,26.67
2023-01-21T02:27:45.981Z,27.57
2023-01-21T02:30:27.573Z,25.03
2023-01-21T02:33:09.401Z,26.50
2023-01-21T02:35:42.478Z,24.90
2023-01-21T02:38:34.380Z,26.23
2023-01-21T02:41:35.450Z,27.33
2023-01-21T02:44:09.867Z,26.77
2023-01-21T02:46:46.020Z,26.93
2023-01-21T02:49:28.179Z,27.33
2023-01-21T02:51:54.526Z,28.10
2023-01-21T02:54:38.962Z,27.40
2023-01-21T02:57:19.783Z,26.33
2023-01-21T02:59:50.228Z,24.47
2023-01-21T03:02:42.489Z,26.63
2023-01-21T03:05:23.766Z,26.97
2023-01-21T03:08:18.785Z,26.57
2023-01-21T03:11:15.837Z,25.63
2023-01-21T03:14:14.227Z,25.70
2023-01-21T03:16:59.077Z,27.13
2023-01-21T03:19:46.514Z,24.83
2023-01-21T03:22:18.737Z,26.40
2023-01-21T03:24:48.750Z,25.17
2023-01-21T03:27:19.947Z,27.40
2023-01-21T03:29:50.270Z,24.50
2023-01-21T03:32:21.289Z,26.67
2023-01-21T03:34:53.364Z,26.17
2023-01-21T03:37:32.183Z,27.23
2023-01-21T03:40:11.197Z,27.47
2023-01-21T03:42:37.797Z,27.97
2023-01-21T03:45:05.317Z,29.43
2023-01-21T03:47:36.974Z,28.30
2023-01-21T03:50:18.822Z,26.70
2023-01-21T03:52:45.956Z,28.40
2023-01-21T03:55:14.093Z,27.00
2023-01-21T03:57:40.428Z,26.37
2023-01-21T04:00:08.207Z,28.47
2023-01-21T04:02:34.604Z,27.90
2023-01-21T04:05:00.952Z,27.90
2023-01-21T04:07:27.968Z,26.77
2023-01-21T04:09:54.334Z,27.07
2023-01-21T04:12:20.664Z,27.20
2023-01-21T04:14:47.008Z,27.67
2023-01-21T04:17:13.335Z,28.37
2023-01-21T04:19:39.659Z,27.90
2023-01-21T04:22:05.982Z,27.97
2023-01-21T04:24:34.582Z,26.53
2023-01-21T04:27:01.162Z,27.90
2023-01-21T04:29:27.508Z,26.57
2023-01-21T04:31:53.917Z,28.13
2023-01-21T04:34:20.274Z,26.90
2023-01-21T04:36:46.756Z,28.30
2023-01-21T04:39:13.107Z,27.47
2023-01-21T04:41:39.458Z,28.23
2023-01-21T04:44:05.896Z,29.17
2023-01-21T04:46:32.233Z,27.77
2023-01-21T04:48:58.601Z,27.73
2023-01-21T04:51:24.979Z,27.40
2023-01-21T04:53:51.321Z,27.53
2023-01-21T04:56:17.644Z,31.27
2023-01-21T04:58:44.000Z,27.17
2023-01-21T05:01:10.348Z,27.30
2023-01-21T05:03:36.700Z,26.73
2023-01-21T05:06:03.062Z,28.27
2023-01-21T05:08:30.221Z,28.33
2023-01-21T05:10:56.535Z,27.27
2023-01-21T05:13:22.922Z,26.20
2023-01-21T05:15:49.332Z,25.33
2023-01-21T05:18:15.703Z,27.40
2023-01-21T05:20:42.053Z,26.87
2023-01-21T05:23:08.370Z,25.60
2023-01-21T05:25:34.694Z,28.87
2023-01-21T05:28:01.016Z,29.17
2023-01-21T05:30:27.412Z,26.87
2023-01-21T05:32:54.706Z,28.00
2023-01-21T05:35:22.991Z,26.97
2023-01-21T05:37:49.604Z,29.53
2023-01-21T05:40:17.238Z,29.20
2023-01-21T05:42:43.953Z,28.60
2023-01-21T05:45:11.557Z,28.33
2023-01-21T05:47:38.248Z,27.57
2023-01-21T05:50:05.101Z,29.80
2023-01-21T05:52:31.452Z,28.87
2023-01-21T05:55:02.185Z,28.83
2023-01-21T05:57:29.667Z,28.63
2023-01-21T05:59:56.341Z,31.57
2023-01-21T06:02:22.816Z,28.60
2023-01-21T06:04:49.175Z,29.40
2023-01-21T06:07:15.744Z,27.47
2023-01-21T06:09:42.173Z,30.10
2023-01-21T06:12:08.490Z,30.27
2023-01-21T06:14:34.815Z,29.90
2023-01-21T06:17:01.162Z,30.00
2023-01-21T06:19:27.536Z,30.23
2023-01-21T06:21:53.870Z,31.70
2023-01-21T06:24:20.213Z,28.43
2023-01-21T06:26:46.557Z,31.47
2023-01-21T06:29:12.952Z,29.87
2023-01-21T06:31:40.132Z,30.43
2023-01-21T06:34:06.558Z,30.67
2023-01-21T06:36:32.937Z,30.03
2023-01-21T06:38:59.280Z,30.97
2023-01-21T06:41:25.612Z,29.47
2023-01-21T06:43:51.951Z,28.83
2023-01-21T06:46:18.408Z,28.70
2023-01-21T06:48:44.786Z,30.50
2023-01-21T06:51:11.269Z,32.43
2023-01-21T06:53:37.576Z,29.57
2023-01-21T06:56:04.150Z,31.03
2023-01-21T06:58:30.521Z,31.00
2023-01-21T07:00:57.631Z,28.40
2023-01-21T07:03:24.031Z,30.83
2023-01-21T07:05:50.413Z,30.50
2023-01-21T07:08:16.743Z,31.63
2023-01-21T07:10:43.073Z,30.87
2023-01-21T07:13:09.466Z,29.17
2023-01-21T07:15:35.826Z,29.40
2023-01-21T07:18:03.001Z,33.77
2023-01-21T07:20:29.445Z,34.70
2023-01-21T07:22:55.799Z,35.57
2023-01-21T07:25:22.138Z,31.40
2023-01-21T07:27:48.463Z,32.77
2023-01-21T07:30:19.532Z,30.40
2023-01-21T07:32:46.692Z,31.50
2023-01-21T07:35:13.500Z,31.90
2023-01-21T07:37:40.406Z,32.10
2023-01-21T07:40:07.486Z,32.90
2023-01-21T07:42:33.818Z,33.13
2023-01-21T07:45:02.717Z,32.50
2023-01-21T07:47:29.474Z,34.07
2023-01-21T07:49:55.853Z,32.37
2023-01-21T07:52:22.233Z,32.07
2023-01-21T07:54:48.565Z,31.13
2023-01-21T07:57:14.907Z,31.90
2023-01-21T07:59:41.252Z,34.00
2023-01-21T08:02:07.672Z,31.83
2023-01-21T08:04:34.089Z,31.60
2023-01-21T08:07:01.834Z,31.67
2023-01-21T08:09:28.161Z,35.33
2023-01-21T08:11:54.527Z,32.90
2023-01-21T08:14:20.909Z,31.33
2023-01-21T08:16:47.234Z,32.30
2023-01-21T08:19:14.096Z,30.97
2023-01-21T08:21:40.574Z,31.40
2023-01-21T08:24:07.203Z,31.97
2023-01-21T08:26:33.588Z,29.57
2023-01-21T08:29:00.700Z,31.40
2023-01-21T08:31:27.145Z,32.70
2023-01-21T08:33:53.487Z,31.20
2023-01-21T08:36:20.071Z,30.03
2023-01-21T08:38:48.633Z,29.53
2023-01-21T08:41:16.464Z,28.67
2023-01-21T08:43:42.818Z,30.50
2023-01-21T08:46:09.197Z,30.43
2023-01-21T08:48:37.490Z,29.07
2023-01-21T08:51:04.073Z,30.67
2023-01-21T08:53:30.719Z,30.83
2023-01-21T08:56:02.004Z,30.53
2023-01-21T08:58:29.719Z,32.80
2023-01-21T09:00:56.505Z,31.67
2023-01-21T09:03:23.245Z,31.00
2023-01-21T09:05:51.706Z,30.77
2023-01-21T09:08:18.907Z,30.07
2023-01-21T09:11:03.581Z,33.27
2023-01-21T09:13:37.262Z,32.77
2023-01-21T09:16:11.892Z,31.60
2023-01-21T09:18:38.328Z,30.33
2023-01-21T09:21:05.831Z,30.80
2023-01-21T09:23:34.478Z,30.77
2023-01-21T09:26:02.218Z,32.20
2023-01-21T09:28:29.158Z,32.93
2023-01-21T09:30:57.347Z,31.37
2023-01-21T09:33:23.728Z,31.37
2023-01-21T09:35:57.877Z,31.57
2023-01-21T09:38:25.768Z,29.37
2023-01-21T09:40:52.854Z,31.40
2023-01-21T09:43:40.347Z,31.23
2023-01-21T09:46:15.019Z,31.30
2023-01-21T09:48:44.677Z,29.43
2023-01-21T09:51:27.253Z,31.23
2023-01-21T09:53:56.954Z,29.40
2023-01-21T09:56:31.246Z,30.27
2023-01-21T09:59:06.983Z,30.27
2023-01-21T10:01:37.201Z,29.43
2023-01-21T10:04:31.419Z,31.13
2023-01-21T10:07:07.329Z,27.87
2023-01-21T10:10:04.436Z,27.47
2023-01-21T10:12:51.017Z,29.23
2023-01-21T10:15:34.959Z,27.80
2023-01-21T10:18:03.348Z,28.00
2023-01-21T10:20:43.397Z,26.67
2023-01-21T10:23:24.306Z,30.10
2023-01-21T10:25:50.971Z,27.47
2023-01-21T10:28:25.130Z,29.60
2023-01-21T10:31:02.664Z,28.33
2023-01-21T10:33:32.267Z,27.13
2023-01-21T10:36:30.464Z,28.50
2023-01-21T10:39:17.206Z,28.27
2023-01-21T10:41:50.552Z,27.80
2023-01-21T10:44:24.635Z,27.10
2023-01-21T10:47:07.215Z,28.43
2023-01-21T10:49:54.743Z,29.30
2023-01-21T10:52:56.510Z,27.37
2023-01-21T10:55:54.774Z,26.27
2023-01-21T10:58:30.404Z,24.93
2023-01-21T11:01:01.070Z,26.47
2023-01-21T11:03:38.775Z,26.20
2023-01-21T11:06:08.461Z,25.07
2023-01-21T11:08:35.290Z,24.43
2023-01-21T11:11:02.865Z,26.70
2023-01-21T11:13:29.431Z,25.07
2023-01-21T11:15:59.643Z,24.87
2023-01-21T11:18:27.950Z,25.80
2023-01-21T11:20:59.040Z,26.83
2023-01-21T11:23:27.263Z,24.27
2023-01-21T11:26:05.304Z,23.20
2023-01-21T11:28:32.819Z,23.53
2023-01-21T11:31:12.978Z,22.70
2023-01-21T11:33:41.061Z,23.40
2023-01-21T11:36:19.673Z,22.57
2023-01-21T11:38:59.672Z,24.40
2023-01-21T11:41:26.466Z,22.20
2023-01-21T11:44:08.625Z,22.77
2023-01-21T11:46:41.265Z,23.17
2023-01-21T11:49:10.449Z,22.13
2023-01-21T11:51:41.824Z,22.40
2023-01-21T11:54:22.779Z,22.40
2023-01-21T11:56:58.060Z,22.40
2023-01-21T11:59:29.611Z,21.67
2023-01-21T12:02:04.319Z,22.57
2023-01-21T12:04:31.598Z,20.63
2023-01-21T12:07:00.369Z,22.43
2023-01-21T12:09:28.894Z,21.70
2023-01-21T12:12:32.482Z,20.97
2023-01-21T12:15:03.758Z,22.83
2023-01-21T12:18:08.377Z,20.33
2023-01-21T12:21:07.601Z,22.47
2023-01-21T12:24:01.508Z,19.73
2023-01-21T12:26:38.930Z,20.63
2023-01-21T12:29:26.340Z,20.43
2023-01-21T12:32:23.767Z,21.13
2023-01-21T12:34:59.952Z,19.57
2023-01-21T12:37:32.441Z,20.70
2023-01-21T12:40:12.981Z,18.73
2023-01-21T12:42:46.282Z,20.80
2023-01-21T12:45:31.051Z,19.13
2023-01-21T12:48:05.557Z,18.50
2023-01-21T12:50:41.166Z,19.83
2023-01-21T12:53:39.345Z,18.07
2023-01-21T12:56:32.552Z,18.73
2023-01-21T12:59:08.706Z,21.43
2023-01-21T13:01:53.104Z,19.07
2023-01-21T13:04:51.256Z,20.70
2023-01-21T13:07:30.486Z,18.47
2023-01-21T13:10:05.957Z,19.23
2023-01-21T13:12:35.515Z,20.00
2023-01-21T13:15:13.622Z,19.03
2023-01-21T13:17:43.329Z,20.33
2023-01-21T13:20:20.821Z,20.83
2023-01-21T13:23:00.930Z,21.00
2023-01-21T13:25:47.648Z,19.67
2023-01-21T13:28:25.848Z,19.90
2023-01-21T13:31:03.827Z,19.73
2023-01-21T13:34:15.118Z,19.60
2023-01-21T13:37:16.956Z,21.13
2023-01-21T13:40:12.421Z,20.20
2023-01-21T13:43:20.764Z,20.20
2023-01-21T13:46:16.592Z,21.47
2023-01-21T13:49:00.990Z,21.80
2023-01-21T13:51:48.707Z,20.93
2023-01-21T13:54:34.835Z,20.70
2023-01-21T13:57:25.816Z,20.33
2023-01-21T13:59:58.277Z,19.53
2023-01-21T14:02:29.042Z,20.30
2023-01-21T14:05:16.269Z,19.33
2023-01-21T14:07:50.453Z,19.47
2023-01-21T14:10:32.848Z,20.43
2023-01-21T14:13:21.064Z,18.13
2023-01-21T14:16:08.756Z,18.97
2023-01-21T14:18:56.385Z,18.70
2023-01-21T14:21:50.759Z,18.57
2023-01-21T14:24:41.674Z,19.47
2023-01-21T14:27:43.283Z,18.90
2023-01-21T14:30:19.089Z,18.17
2023-01-21T14:33:03.576Z,19.37
2023-01-21T14:35:47.559Z,18.30
2023-01-21T14:38:47.928Z,18.07
2023-01-21T14:41:15.240Z,19.70
2023-01-21T14:43:42.004Z,17.87
2023-01-21T14:46:34.960Z,18.73
2023-01-21T14:49:08.159Z,20.20
2023-01-21T14:51:37.471Z,18.93
2023-01-21T14:54:11.288Z,19.00
2023-01-21T14:56:38.557Z,19.20
2023-01-21T14:59:41.175Z,19.53
2023-01-21T15:02:42.642Z,18.30
2023-01-21T15:05:23.722Z,19.40
2023-01-21T15:08:07.688Z,19.20
2023-01-21T15:10:38.110Z,17.73
2023-01-21T15:13:28.497Z,17.83
2023-01-21T15:16:07.207Z,17.77
2023-01-21T15:18:45.357Z,18.17
2023-01-21T15:21:33.362Z,17.67
2023-01-21T15:24:18.498Z,17.13
2023-01-21T15:27:23.126Z,17.80
2023-01-21T15:29:56.707Z,16.20
2023-01-21T15:32:45.406Z,18.37
2023-01-21T15:35:34.643Z,17.43
2023-01-21T15:38:12.144Z,17.40
2023-01-21T15:40:50.230Z,17.13
2023-01-21T15:43:40.757Z,17.90
2023-01-21T15:46:15.821Z,18.80
2023-01-21T15:49:25.044Z,17.03
2023-01-21T15:52:09.440Z,16.40
2023-01-21T15:54:49.239Z,16.53
2023-01-21T15:57:41.839Z,15.97
2023-01-21T16:00:29.331Z,15.10
2023-01-21T16:03:01.827Z,15.40
2023-01-21T16:05:36.282Z,15.97
2023-01-21T16:08:32.902Z,16.03
2023-01-21T16:11:34.126Z,14.40
2023-01-21T16:14:15.391Z,13.80
2023-01-21T16:17:08.288Z,14.63
2023-01-21T16:19:42.985Z,14.20
2023-01-21T16:22:12.736Z,13.93
2023-01-21T16:24:48.004Z,13.03
2023-01-21T16:27:30.788Z,14.00
2023-01-21T16:30:07.632Z,14.13
2023-01-21T16:32:36.839Z,14.90
2023-01-21T16:35:04.673Z,14.77
2023-01-21T16:37:31.991Z,13.87
2023-01-21T16:40:23.665Z,14.33
2023-01-21T16:43:05.952Z,13.63
2023-01-21T16:45:32.653Z,13.80
2023-01-21T16:47:59.619Z,13.20
2023-01-21T16:50:29.640Z,13.67
2023-01-21T16:52:58.401Z,14.93
2023-01-21T16:55:27.824Z,13.87
2023-01-21T16:57:57.245Z,14.03
2023-01-21T17:00:29.596Z,14.53
2023-01-21T17:02:57.162Z,14.27
2023-01-21T17:05:28.260Z,14.57
2023-01-21T17:07:58.751Z,14.43
2023-01-21T17:10:38.990Z,15.33
2023-01-21T17:13:13.204Z,17.23
2023-01-21T17:15:57.975Z,16.80
2023-01-21T17:18:35.040Z,19.07
2023-01-21T17:21:08.235Z,17.20
2023-01-21T17:23:43.477Z,15.43
2023-01-21T17:26:20.237Z,18.40
2023-01-21T17:29:03.114Z,18.27
2023-01-21T17:31:35.237Z,17.03
2023-01-21T17:34:04.084Z,16.57
2023-01-21T17:36:33.125Z,16.43
2023-01-21T17:39:00.148Z,16.37
2023-01-21T17:41:29.344Z,15.63
2023-01-21T17:43:56.480Z,15.23
2023-01-21T17:46:24.498Z,15.60
2023-01-21T17:48:54.970Z,17.10
2023-01-21T17:51:28.219Z,17.10
2023-01-21T17:54:04.482Z,16.03
2023-01-21T17:56:47.804Z,16.70
2023-01-21T17:59:36.149Z,15.53
2023-01-21T18:02:05.066Z,15.70
2023-01-21T18:04:31.476Z,16.47
2023-01-21T18:06:58.060Z,17.83
2023-01-21T18:09:28.144Z,19.00
2023-01-21T18:11:57.709Z,20.43
2023-01-21T18:14:25.618Z,19.87
2023-01-21T18:16:53.592Z,19.40
2023-01-21T18:19:29.223Z,19.90
2023-01-21T18:21:56.080Z,17.73
2023-01-21T18:24:22.705Z,18.83
2023-01-21T18:26:49.483Z,18.37
2023-01-21T18:29:18.078Z,17.33
2023-01-21T18:31:45.387Z,17.53
2023-01-21T18:34:12.180Z,17.50
2023-01-21T18:36:39.870Z,18.80
2023-01-21T18:39:12.321Z,19.00
2023-01-21T18:41:38.893Z,17.60
2023-01-21T18:44:05.389Z,17.20
2023-01-21T18:46:31.782Z,17.83
2023-01-21T18:48:58.207Z,17.03
2023-01-21T18:51:26.160Z,18.17
2023-01-21T18:53:52.635Z,17.60
2023-01-21T18:56:19.491Z,19.00
2023-01-21T18:58:46.001Z,19.60
2023-01-21T19:01:22.434Z,19.50
2023-01-21T19:03:53.158Z,19.07
2023-01-21T19:06:19.694Z,20.50
2023-01-21T19:08:48.471Z,20.47
2023-01-21T19:11:16.059Z,21.63
2023-01-21T19:13:42.470Z,21.10
2023-01-21T19:16:19.666Z,22.27
2023-01-21T19:18:47.135Z,22.27
2023-01-21T19:21:14.266Z,23.07
2023-01-21T19:23:40.913Z,23.10
2023-01-21T19:26:13.523Z,23.20
2023-01-21T19:28:39.963Z,21.80
2023-01-21T19:31:06.457Z,22.00
2023-01-21T19:33:32.938Z,21.67
2023-01-21T19:36:03.274Z,23.50
2023-01-21T19:38:30.467Z,24.03
2023-01-21T19:40:56.826Z,23.27
2023-01-21T19:43:23.364Z,23.70
2023-01-21T19:45:52.016Z,22.30
2023-01-21T19:48:21.186Z,25.00
2023-01-21T19:50:48.223Z,26.13
2023-01-21T19:53:16.600Z,24.70
2023-01-21T19:55:45.864Z,25.73
2023-01-21T19:58:19.586Z,24.87
2023-01-21T20:00:48.938Z,25.63
2023-01-21T20:03:20.760Z,26.17
2023-01-21T20:05:51.599Z,24.83
2023-01-21T20:08:21.635Z,24.17
2023-01-21T20:10:49.383Z,24.33
2023-01-21T20:13:16.678Z,25.47
2023-01-21T20:15:44.844Z,25.20
2023-01-21T20:18:17.620Z,24.83
2023-01-21T20:20:44.000Z,25.23
2023-01-21T20:23:14.947Z,26.40
2023-01-21T20:25:43.519Z,26.50
2023-01-21T20:28:22.551Z,25.67
2023-01-21T20:30:50.868Z,27.07
2023-01-21T20:33:19.619Z,23.27
2023-01-21T20:35:48.070Z,27.00
2023-01-21T20:38:18.775Z,27.03
2023-01-21T20:40:45.213Z,24.30
2023-01-21T20:43:11.588Z,24.60
2023-01-21T20:45:42.535Z,25.83
2023-01-21T20:48:24.999Z,25.97
2023-01-21T20:50:51.677Z,24.40
2023-01-21T20:53:18.137Z,24.80
2023-01-21T20:55:49.856Z,24.87
2023-01-21T20:58:19.307Z,25.23
2023-01-21T21:00:46.570Z,25.60
2023-01-21T21:03:15.047Z,24.40
2023-01-21T21:05:41.394Z,24.90
2023-01-21T21:08:13.501Z,22.03
2023-01-21T21:10:40.321Z,23.63
2023-01-21T21:13:07.038Z,24.47
2023-01-21T21:15:35.879Z,23.47
2023-01-21T21:18:03.712Z,23.83
2023-01-21T21:20:36.811Z,24.83
2023-01-21T21:23:03.146Z,24.47
2023-01-21T21:25:32.274Z,21.47
2023-01-21T21:27:59.182Z,24.77
2023-01-21T21:30:31.422Z,23.57
2023-01-21T21:32:59.925Z,23.13
2023-01-21T21:35:37.369Z,23.93
2023-01-21T21:38:06.705Z,23.30
2023-01-21T21:40:35.607Z,22.83
2023-01-21T21:43:20.945Z,21.10
2023-01-21T21:46:06.281Z,21.13
2023-01-21T21:48:39.267Z,21.33
2023-01-21T21:51:10.070Z,22.90
2023-01-21T21:53:37.531Z,21.67
2023-01-21T21:56:06.552Z,23.17
2023-01-21T21:58:32.935Z,21.23
2023-01-21T22:01:13.924Z,22.63
2023-01-21T22:03:40.477Z,20.23
2023-01-21T22:06:07.805Z,21.00
2023-01-21T22:08:36.879Z,22.27
2023-01-21T22:11:06.405Z,21.93
2023-01-21T22:13:40.169Z,23.57
2023-01-21T22:16:08.148Z,22.30
2023-01-21T22:18:35.143Z,22.80
2023-01-21T22:21:03.591Z,22.43
2023-01-21T22:23:31.812Z,23.93
2023-01-21T22:26:00.461Z,22.13
2023-01-21T22:28:26.820Z,22.47
2023-01-21T22:30:53.739Z,22.57
2023-01-21T22:33:22.105Z,22.80
2023-01-21T22:35:48.482Z,22.27
2023-01-21T22:38:14.896Z,21.93
2023-01-21T22:40:41.240Z,22.20
2023-01-21T22:43:07.795Z,22.77
2023-01-21T22:45:34.217Z,22.90
2023-01-21T22:48:01.412Z,22.37
2023-01-21T22:50:28.743Z,23.00
2023-01-21T22:52:55.578Z,23.70
2023-01-21T22:55:21.922Z,22.33
2023-01-21T22:57:48.277Z,22.73
2023-01-21T23:00:16.153Z,24.23
2023-01-21T23:02:42.483Z,23.83
2023-01-21T23:05:09.145Z,23.73
2023-01-21T23:07:35.491Z,24.40
2023-01-21T23:10:01.837Z,23.87
2023-01-21T23:12:28.659Z,23.97
2023-01-21T23:14:55.050Z,22.63
2023-01-21T23:17:21.481Z,23.97
2023-01-21T23:19:48.043Z,23.43
2023-01-21T23:22:14.452Z,22.73
2023-01-21T23:24:40.795Z,24.90
2023-01-21T23:27:07.128Z,23.87
2023-01-21T23:29:33.476Z,23.27
2023-01-21T23:31:59.887Z,23.43
2023-01-21T23:34:26.264Z,23.30
2023-01-21T23:36:52.593Z,21.83
2023-01-21T23:39:18.934Z,20.70
2023-01-21T23:41:45.278Z,21.40
2023-01-21T23:44:11.702Z,21.30
2023-01-21T23:46:38.768Z,21.10
2023-01-21T23:49:05.159Z,22.10
2023-01-21T23:51:31.510Z,21.70
2023-01-21T23:53:57.907Z,21.37
2023-01-21T23:56:25.529Z,21.67
2023-01-21T23:58:52.377Z,21.40
